UVF weather

Hewanorra International Airport
Vieux Fort, Vieux Fort, Saint Lucia

Public forecast

Using degrees Celsius for public forecast. Weather courtesy of forecast.io.

Current aviation weather report (METAR) for Hewanorra International Airport

Retrieved 2019/10/18 13:00 UTC (23 minutes ago):

TLPL 181300Z 00000KT 9999 -RA FEW007 BKN038 25/25 Q1014 NOSIG

Aviation forecast (TAF) for Hewanorra International Airport

Retrieved 2019/10/18 12:03 UTC (1 hour ago):

TAF TLPL 181100Z 1812/1912 08014KT 9999 SCT020 SCT038 TEMPO 1812/1824 5000 SHRA FEW015CB BKN018 PROB30 TEMPO 1812/1818 TSRA SCT012CB